createdAt,value
2023-07-17T00:02:04.520Z,16.56
2023-07-17T00:04:59.936Z,16.56
2023-07-17T00:07:55.824Z,16.50
2023-07-17T00:10:45.829Z,16.44
2023-07-17T00:13:33.980Z,16.44
2023-07-17T00:16:22.343Z,16.44
2023-07-17T00:19:15.004Z,16.38
2023-07-17T00:22:04.713Z,16.38
2023-07-17T00:24:54.083Z,16.31
2023-07-17T00:27:41.820Z,16.31
2023-07-17T00:30:29.483Z,16.31
2023-07-17T00:33:22.780Z,16.31
2023-07-17T00:36:11.027Z,16.25
2023-07-17T00:38:59.226Z,16.19
2023-07-17T00:41:50.540Z,16.13
2023-07-17T00:44:39.677Z,16.19
2023-07-17T00:47:31.185Z,16.13
2023-07-17T00:50:23.039Z,16.13
2023-07-17T00:53:11.508Z,16.06
2023-07-17T00:56:02.051Z,16.06
2023-07-17T00:59:02.780Z,16.06
2023-07-17T01:01:58.222Z,16.00
2023-07-17T01:04:48.488Z,16.06
2023-07-17T01:07:38.961Z,16.00
2023-07-17T01:10:27.494Z,16.06
2023-07-17T01:13:15.237Z,16.13
2023-07-17T01:16:05.845Z,16.13
2023-07-17T01:18:54.814Z,16.13
2023-07-17T01:21:59.260Z,16.19
2023-07-17T01:24:49.364Z,16.25
2023-07-17T01:27:37.180Z,16.25
2023-07-17T01:30:25.575Z,16.25
2023-07-17T01:33:13.192Z,16.25
2023-07-17T01:36:03.417Z,16.31
2023-07-17T01:38:51.614Z,16.31
2023-07-17T01:41:39.891Z,16.31
2023-07-17T01:44:29.497Z,16.38
2023-07-17T01:47:17.956Z,16.31
2023-07-17T01:50:07.412Z,16.19
2023-07-17T01:52:55.569Z,16.13
2023-07-17T01:55:48.666Z,16.13
2023-07-17T01:58:37.368Z,16.06
2023-07-17T02:01:25.417Z,16.13
2023-07-17T02:04:14.469Z,16.13
2023-07-17T02:07:02.330Z,16.06
2023-07-17T02:09:50.199Z,16.06
2023-07-17T02:12:43.150Z,16.25
2023-07-17T02:15:31.118Z,16.31
2023-07-17T02:18:19.118Z,16.44
2023-07-17T02:21:07.092Z,16.56
2023-07-17T02:23:55.038Z,16.38
2023-07-17T02:26:42.595Z,16.31
2023-07-17T02:29:30.935Z,16.38
2023-07-17T02:32:19.187Z,16.38
2023-07-17T02:35:07.867Z,16.44
2023-07-17T02:37:56.766Z,16.44
2023-07-17T02:40:44.546Z,16.50
2023-07-17T02:43:32.616Z,16.44
2023-07-17T02:46:20.351Z,16.31
2023-07-17T02:49:13.192Z,16.31
2023-07-17T02:52:01.464Z,16.31
2023-07-17T02:54:49.293Z,16.31
2023-07-17T02:57:38.185Z,16.44
2023-07-17T03:00:26.721Z,16.63
2023-07-17T03:03:15.263Z,16.88
2023-07-17T03:06:05.552Z,16.94
2023-07-17T03:08:53.556Z,17.00
2023-07-17T03:11:41.668Z,17.00
2023-07-17T03:14:30.635Z,17.00
2023-07-17T03:17:18.404Z,16.88
2023-07-17T03:20:10.639Z,16.88
2023-07-17T03:22:58.732Z,16.94
2023-07-17T03:25:46.693Z,17.00
2023-07-17T03:28:36.346Z,17.13
2023-07-17T03:31:24.238Z,17.19
2023-07-17T03:34:12.947Z,17.31
2023-07-17T03:37:04.264Z,17.38
2023-07-17T03:39:52.418Z,17.44
2023-07-17T03:42:40.202Z,17.38
2023-07-17T03:45:33.466Z,17.31
2023-07-17T03:48:22.054Z,17.31
2023-07-17T03:51:10.529Z,17.31
2023-07-17T03:53:58.739Z,17.25
2023-07-17T03:56:47.315Z,17.25
2023-07-17T03:59:56.785Z,17.19
2023-07-17T04:02:48.884Z,17.25
2023-07-17T04:05:43.415Z,17.25
2023-07-17T04:08:31.814Z,17.25
2023-07-17T04:11:20.982Z,17.25
2023-07-17T04:14:12.709Z,17.19
2023-07-17T04:17:05.294Z,17.25
2023-07-17T04:20:07.798Z,17.44
2023-07-17T04:23:01.668Z,17.63
2023-07-17T04:25:54.348Z,17.81
2023-07-17T04:28:43.693Z,18.13
2023-07-17T04:31:35.252Z,18.44
2023-07-17T04:34:23.877Z,18.75
2023-07-17T04:37:11.911Z,18.94
2023-07-17T04:40:00.859Z,19.19
2023-07-17T04:42:54.743Z,19.38
2023-07-17T04:45:45.948Z,19.44
2023-07-17T04:48:38.902Z,19.69
2023-07-17T04:51:27.171Z,19.81
2023-07-17T04:54:15.429Z,19.81
2023-07-17T04:57:08.092Z,19.81
2023-07-17T04:59:56.200Z,20.00
2023-07-17T05:02:45.998Z,20.25
2023-07-17T05:05:34.543Z,23.25
2023-07-17T05:08:27.639Z,25.31
2023-07-17T05:11:16.444Z,24.25
2023-07-17T05:14:07.524Z,21.63
2023-07-17T05:16:57.304Z,21.25
2023-07-17T05:19:45.700Z,21.31
2023-07-17T05:22:35.283Z,22.13
2023-07-17T05:25:26.780Z,25.88
2023-07-17T05:28:15.801Z,27.50
2023-07-17T05:31:05.849Z,27.19
2023-07-17T05:33:59.748Z,27.81
2023-07-17T05:36:49.297Z,29.00
2023-07-17T05:39:37.146Z,27.81
2023-07-17T05:42:25.319Z,27.50
2023-07-17T05:45:13.843Z,27.44
2023-07-17T05:48:02.049Z,27.88
2023-07-17T05:50:50.462Z,27.00
2023-07-17T05:53:38.856Z,27.44
2023-07-17T05:56:27.562Z,27.00
2023-07-17T05:59:16.621Z,27.31
2023-07-17T06:02:09.373Z,27.63
2023-07-17T06:05:02.254Z,27.56
2023-07-17T06:07:50.403Z,28.56
2023-07-17T06:10:39.296Z,28.50
2023-07-17T06:13:27.355Z,29.75
2023-07-17T06:16:15.161Z,30.50
2023-07-17T06:19:05.549Z,30.88
2023-07-17T06:21:55.763Z,31.56
2023-07-17T06:24:47.020Z,31.31
2023-07-17T06:27:38.151Z,30.44
2023-07-17T06:30:29.021Z,29.94
2023-07-17T06:33:16.860Z,29.69
2023-07-17T06:36:05.441Z,29.75
2023-07-17T06:38:53.813Z,30.81
2023-07-17T06:41:41.834Z,32.50
2023-07-17T06:44:31.147Z,31.00
2023-07-17T06:47:36.701Z,31.56
2023-07-17T06:50:31.262Z,33.50
2023-07-17T06:53:22.419Z,33.13
2023-07-17T06:56:13.110Z,34.63
2023-07-17T06:59:02.663Z,33.56
2023-07-17T07:01:50.673Z,34.13
2023-07-17T07:04:38.349Z,32.75
2023-07-17T07:07:28.344Z,34.81
2023-07-17T07:10:16.496Z,35.00
2023-07-17T07:13:04.494Z,35.06
2023-07-17T07:15:53.135Z,35.19
2023-07-17T07:18:46.338Z,31.94
2023-07-17T07:21:39.206Z,35.56
2023-07-17T07:24:29.643Z,36.31
2023-07-17T07:27:21.018Z,30.81
2023-07-17T07:30:10.229Z,27.81
2023-07-17T07:33:01.919Z,27.50
2023-07-17T07:35:51.797Z,27.69
2023-07-17T07:38:40.221Z,30.13
2023-07-17T07:41:32.227Z,34.25
2023-07-17T07:44:21.531Z,32.50
2023-07-17T07:47:09.551Z,30.81
2023-07-17T07:49:58.055Z,33.38
2023-07-17T07:52:46.263Z,34.94
2023-07-17T07:55:34.415Z,33.31
2023-07-17T07:58:22.765Z,34.13
2023-07-17T08:01:11.386Z,34.56
2023-07-17T08:04:01.217Z,34.50
2023-07-17T08:06:51.050Z,35.81
2023-07-17T08:09:41.008Z,34.88
2023-07-17T08:12:34.202Z,35.50
2023-07-17T08:15:26.500Z,33.50
2023-07-17T08:18:22.555Z,34.38
2023-07-17T08:21:11.408Z,35.38
2023-07-17T08:24:02.515Z,34.38
2023-07-17T08:27:03.773Z,36.31
2023-07-17T08:29:55.108Z,37.38
2023-07-17T08:32:48.929Z,34.19
2023-07-17T08:35:39.956Z,33.56
2023-07-17T08:38:31.084Z,32.69
2023-07-17T08:41:23.720Z,31.88
2023-07-17T08:44:16.357Z,30.69
2023-07-17T08:47:09.756Z,33.50
2023-07-17T08:50:05.631Z,32.69
2023-07-17T08:52:59.528Z,33.00
2023-07-17T08:55:57.334Z,35.56
2023-07-17T08:58:53.842Z,34.75
2023-07-17T09:01:43.548Z,33.56
2023-07-17T09:04:37.792Z,31.31
2023-07-17T09:07:28.901Z,28.63
2023-07-17T09:10:22.473Z,28.50
2023-07-17T09:13:11.316Z,27.25
2023-07-17T09:16:21.728Z,27.19
2023-07-17T09:19:09.861Z,27.19
2023-07-17T09:22:05.934Z,28.56
2023-07-17T09:24:53.864Z,27.81
2023-07-17T09:27:55.099Z,28.19
2023-07-17T09:30:43.258Z,27.63
2023-07-17T09:33:37.313Z,27.38
2023-07-17T09:36:25.771Z,27.50
2023-07-17T09:39:15.303Z,30.69
2023-07-17T09:42:03.185Z,33.13
2023-07-17T09:44:53.773Z,33.63
2023-07-17T09:47:42.362Z,31.81
2023-07-17T09:50:31.732Z,33.06
2023-07-17T09:53:21.724Z,33.31
2023-07-17T09:56:15.202Z,33.44
2023-07-17T09:59:15.532Z,33.31
2023-07-17T10:02:12.017Z,33.56
2023-07-17T10:05:02.849Z,33.31
2023-07-17T10:07:54.407Z,32.63
2023-07-17T10:10:43.312Z,31.56
2023-07-17T10:13:31.537Z,32.13
2023-07-17T10:16:20.538Z,33.56
2023-07-17T10:19:09.718Z,33.94
2023-07-17T10:22:00.225Z,33.38
2023-07-17T10:24:49.391Z,33.00
2023-07-17T10:27:45.423Z,34.94
2023-07-17T10:30:39.114Z,33.63
2023-07-17T10:33:36.681Z,31.06
2023-07-17T10:36:44.263Z,29.75
2023-07-17T10:39:32.419Z,28.94
2023-07-17T10:42:21.700Z,29.00
2023-07-17T10:45:12.580Z,28.44
2023-07-17T10:48:01.445Z,28.25
2023-07-17T10:50:56.017Z,28.19
2023-07-17T10:53:48.749Z,27.44
2023-07-17T10:56:49.650Z,27.38
2023-07-17T10:59:38.706Z,27.31
2023-07-17T11:02:28.025Z,27.19
2023-07-17T11:05:16.711Z,29.88
2023-07-17T11:08:09.604Z,31.25
2023-07-17T11:11:00.501Z,30.25
2023-07-17T11:13:52.851Z,28.06
2023-07-17T11:16:43.681Z,29.06
2023-07-17T11:19:35.401Z,31.69
2023-07-17T11:22:31.173Z,32.56
2023-07-17T11:25:25.737Z,31.63
2023-07-17T11:28:15.679Z,32.25
2023-07-17T11:31:04.611Z,32.25
2023-07-17T11:34:06.559Z,29.38
2023-07-17T11:36:55.846Z,27.44
2023-07-17T11:39:43.318Z,27.06
2023-07-17T11:42:51.997Z,27.00
2023-07-17T11:45:41.627Z,25.81
2023-07-17T11:48:42.491Z,25.25
2023-07-17T11:51:30.210Z,25.06
2023-07-17T11:54:18.289Z,24.88
2023-07-17T11:57:06.641Z,24.88
2023-07-17T12:00:06.188Z,24.63
2023-07-17T12:03:01.829Z,24.88
2023-07-17T12:05:49.898Z,25.19
2023-07-17T12:08:38.953Z,25.06
2023-07-17T12:11:27.546Z,25.31
2023-07-17T12:14:16.924Z,25.19
2023-07-17T12:17:05.434Z,24.63
2023-07-17T12:19:53.314Z,24.44
2023-07-17T12:22:43.709Z,24.00
2023-07-17T12:25:32.326Z,23.56
2023-07-17T12:28:21.944Z,23.38
2023-07-17T12:31:11.106Z,23.25
2023-07-17T12:33:59.343Z,23.19
2023-07-17T12:36:49.404Z,23.13
2023-07-17T12:39:37.249Z,23.19
2023-07-17T12:42:26.614Z,23.38
2023-07-17T12:45:16.042Z,23.44
2023-07-17T12:48:08.788Z,23.44
2023-07-17T12:50:59.105Z,23.69
2023-07-17T12:53:49.843Z,24.06
2023-07-17T12:56:37.956Z,24.50
2023-07-17T12:59:26.244Z,24.94
2023-07-17T13:02:14.849Z,25.69
2023-07-17T13:05:03.842Z,25.38
2023-07-17T13:07:52.583Z,25.81
2023-07-17T13:10:41.328Z,25.63
2023-07-17T13:13:29.096Z,25.19
2023-07-17T13:16:18.108Z,25.13
2023-07-17T13:19:06.358Z,24.44
2023-07-17T13:21:55.654Z,23.81
2023-07-17T13:24:44.028Z,23.44
2023-07-17T13:27:32.424Z,23.25
2023-07-17T13:30:20.502Z,22.75
2023-07-17T13:33:09.347Z,22.25
2023-07-17T13:35:59.289Z,22.25
2023-07-17T13:38:47.335Z,21.75
2023-07-17T13:41:49.317Z,21.38
2023-07-17T13:44:37.206Z,21.50
2023-07-17T13:47:25.675Z,21.88
2023-07-17T13:50:14.168Z,21.63
2023-07-17T13:53:04.718Z,21.63
2023-07-17T13:55:52.594Z,21.19
2023-07-17T13:58:43.902Z,21.25
2023-07-17T14:01:31.960Z,21.63
2023-07-17T14:04:19.975Z,21.75
2023-07-17T14:07:10.905Z,21.81
2023-07-17T14:10:02.081Z,22.38
2023-07-17T14:12:50.393Z,22.00
2023-07-17T14:15:38.905Z,22.50
2023-07-17T14:18:32.845Z,22.56
2023-07-17T14:21:23.027Z,22.13
2023-07-17T14:24:13.464Z,22.56
2023-07-17T14:27:01.562Z,22.31
2023-07-17T14:29:56.764Z,22.75
2023-07-17T14:32:45.826Z,23.31
2023-07-17T14:35:50.607Z,23.94
2023-07-17T14:38:40.179Z,23.75
2023-07-17T14:41:31.313Z,23.69
2023-07-17T14:44:21.704Z,23.81
2023-07-17T14:47:09.750Z,23.56
2023-07-17T14:49:59.056Z,23.69
2023-07-17T14:52:47.889Z,23.75
2023-07-17T14:55:41.971Z,23.69
2023-07-17T14:58:31.124Z,23.81
2023-07-17T15:01:20.122Z,23.56
2023-07-17T15:04:09.134Z,23.25
2023-07-17T15:07:24.429Z,23.63
2023-07-17T15:10:21.596Z,23.19
2023-07-17T15:13:10.138Z,22.75
2023-07-17T15:15:58.789Z,22.44
2023-07-17T15:18:47.007Z,22.69
2023-07-17T15:21:36.005Z,22.69
2023-07-17T15:24:25.459Z,22.63
2023-07-17T15:27:15.650Z,22.50
2023-07-17T15:30:07.743Z,22.50
2023-07-17T15:33:00.799Z,22.38
2023-07-17T15:35:49.826Z,22.44
2023-07-17T15:38:40.533Z,22.44
2023-07-17T15:41:32.975Z,22.38
2023-07-17T15:44:23.092Z,22.19
2023-07-17T15:47:13.830Z,22.19
2023-07-17T15:50:05.566Z,22.06
2023-07-17T15:52:53.781Z,22.00
2023-07-17T15:55:42.270Z,21.81
2023-07-17T15:58:36.170Z,21.88
2023-07-17T16:01:35.116Z,22.00
2023-07-17T16:04:25.275Z,22.00
2023-07-17T16:07:17.357Z,21.94
2023-07-17T16:10:14.932Z,21.88
2023-07-17T16:13:09.665Z,21.94
2023-07-17T16:15:57.732Z,22.06
2023-07-17T16:18:45.621Z,22.38
2023-07-17T16:21:33.678Z,22.75
2023-07-17T16:24:28.971Z,22.81
2023-07-17T16:27:17.236Z,23.13
2023-07-17T16:30:08.096Z,23.00
2023-07-17T16:32:55.938Z,22.69
2023-07-17T16:35:48.090Z,22.38
2023-07-17T16:38:36.530Z,22.50
2023-07-17T16:44:21.364Z,22.00
2023-07-17T16:47:12.516Z,21.69
2023-07-17T16:49:59.365Z,21.63
2023-07-17T16:52:46.612Z,21.38
2023-07-17T16:55:34.118Z,21.38
2023-07-17T16:58:23.010Z,21.38
2023-07-17T17:01:10.218Z,21.19
2023-07-17T17:03:58.257Z,20.94
2023-07-17T17:06:46.266Z,20.81
2023-07-17T17:09:33.360Z,20.88
2023-07-17T17:12:22.493Z,20.88
2023-07-17T17:15:10.478Z,20.88
2023-07-17T17:18:00.968Z,20.63
2023-07-17T17:20:50.803Z,18.81
2023-07-17T17:23:37.860Z,18.44
2023-07-17T17:26:25.425Z,18.06
2023-07-17T17:29:13.894Z,18.13
2023-07-17T17:32:01.470Z,18.13
2023-07-17T17:34:48.701Z,18.06
2023-07-17T17:37:37.568Z,18.25
2023-07-17T17:40:24.901Z,18.31
2023-07-17T17:43:12.407Z,18.31
2023-07-17T17:46:02.524Z,18.38
2023-07-17T17:48:51.890Z,18.25
2023-07-17T17:51:39.554Z,18.19
2023-07-17T17:54:31.481Z,18.19
2023-07-17T17:57:19.097Z,18.38
2023-07-17T18:00:12.760Z,18.19
2023-07-17T18:03:10.623Z,18.19
2023-07-17T18:05:57.781Z,18.06
2023-07-17T18:08:44.462Z,18.00
2023-07-17T18:11:34.285Z,17.88
2023-07-17T18:14:22.881Z,18.00
2023-07-17T18:17:12.485Z,17.88
2023-07-17T18:26:37.036Z,16.81
2023-07-17T18:29:25.377Z,16.81
2023-07-17T18:32:12.393Z,16.69
2023-07-17T18:35:00.115Z,17.00
2023-07-17T18:37:46.701Z,16.75
2023-07-17T18:40:35.673Z,16.56
2023-07-17T18:43:22.442Z,16.38
2023-07-17T18:46:09.937Z,16.44
2023-07-17T18:49:04.064Z,16.56
2023-07-17T18:51:56.853Z,16.13
2023-07-17T18:54:43.544Z,16.13
2023-07-17T18:57:31.651Z,16.38
2023-07-17T19:00:23.362Z,16.38
2023-07-17T19:03:10.843Z,16.25
2023-07-17T19:06:00.329Z,16.06
2023-07-17T19:08:48.665Z,16.00
2023-07-17T19:11:35.489Z,16.00
2023-07-17T19:14:22.053Z,15.75
2023-07-17T19:17:08.953Z,15.69
2023-07-17T19:19:55.500Z,15.56
2023-07-17T19:22:42.455Z,15.50
2023-07-17T19:25:36.873Z,15.31
2023-07-17T19:28:25.190Z,15.44
2023-07-17T19:31:13.473Z,15.44
2023-07-17T19:34:00.397Z,15.50
2023-07-17T19:36:47.237Z,15.56
2023-07-17T19:39:34.391Z,15.63
2023-07-17T19:42:20.783Z,15.56
2023-07-17T19:45:20.449Z,15.56
2023-07-17T19:48:12.036Z,15.44
2023-07-17T19:51:02.518Z,15.38
2023-07-17T19:53:50.798Z,15.38
2023-07-17T19:56:40.392Z,15.44
2023-07-17T19:59:31.416Z,15.44
2023-07-17T20:02:18.521Z,15.56
2023-07-17T20:05:07.589Z,15.50
2023-07-17T20:07:55.174Z,15.56
2023-07-17T20:10:42.366Z,15.56
2023-07-17T20:13:35.283Z,15.56
2023-07-17T20:16:22.546Z,15.31
2023-07-17T20:19:10.203Z,15.31
2023-07-17T20:22:00.283Z,15.38
2023-07-17T20:24:48.991Z,15.38
2023-07-17T20:27:40.468Z,15.31
2023-07-17T20:30:34.143Z,15.38
2023-07-17T20:33:22.282Z,15.44
2023-07-17T20:36:39.699Z,15.44
2023-07-17T20:39:39.095Z,15.56
2023-07-17T20:42:44.833Z,15.50
2023-07-17T20:45:55.508Z,15.44
2023-07-17T20:48:43.424Z,15.44
2023-07-17T20:51:35.604Z,15.56
2023-07-17T20:54:27.493Z,15.56
2023-07-17T20:57:16.177Z,15.44
2023-07-17T21:00:11.028Z,15.38
2023-07-17T21:02:57.795Z,15.50
2023-07-17T21:05:44.682Z,15.38
2023-07-17T21:08:32.073Z,15.44
2023-07-17T21:11:18.560Z,15.63
2023-07-17T21:14:08.522Z,15.69
2023-07-17T21:16:55.110Z,15.69
2023-07-17T21:19:50.976Z,15.63
2023-07-17T21:22:40.764Z,15.63
2023-07-17T21:25:28.426Z,15.69
2023-07-17T21:28:17.599Z,15.75
2023-07-17T21:31:04.568Z,15.75
2023-07-17T21:33:51.109Z,15.81
2023-07-17T21:36:37.521Z,15.94
2023-07-17T21:39:24.857Z,15.88
2023-07-17T21:42:13.885Z,15.94
2023-07-17T21:45:20.450Z,15.94
2023-07-17T21:48:15.206Z,15.88
2023-07-17T21:51:06.944Z,15.88
2023-07-17T21:53:55.216Z,15.81
2023-07-17T21:56:42.271Z,15.75
2023-07-17T21:59:28.962Z,15.81
2023-07-17T22:02:16.960Z,15.81
2023-07-17T22:05:04.534Z,15.75
2023-07-17T22:07:51.266Z,15.69
2023-07-17T22:10:38.266Z,15.56
2023-07-17T22:13:26.100Z,15.56
2023-07-17T22:16:20.599Z,15.56
2023-07-17T22:19:14.398Z,15.56
2023-07-17T22:22:01.337Z,15.56
2023-07-17T22:24:50.328Z,15.56
2023-07-17T22:27:37.823Z,15.56
2023-07-17T22:30:37.566Z,15.63
2023-07-17T22:33:24.371Z,15.56
2023-07-17T22:36:11.011Z,15.56
2023-07-17T22:39:03.559Z,15.63
2023-07-17T22:41:50.719Z,15.56
2023-07-17T22:44:37.492Z,15.56
2023-07-17T22:47:24.670Z,15.56
2023-07-17T22:50:11.557Z,15.50
2023-07-17T22:52:59.861Z,15.50
2023-07-17T22:55:47.262Z,15.56
2023-07-17T22:58:37.330Z,15.50
2023-07-17T23:01:25.510Z,15.50
2023-07-17T23:04:14.685Z,15.56
2023-07-17T23:07:04.964Z,15.50
2023-07-17T23:09:53.597Z,15.50
2023-07-17T23:12:44.015Z,15.38
2023-07-17T23:15:30.794Z,15.38
2023-07-17T23:18:20.352Z,15.31
2023-07-17T23:21:11.104Z,15.38
2023-07-17T23:24:01.145Z,15.31
2023-07-17T23:26:48.146Z,15.25
2023-07-17T23:29:37.120Z,15.25
2023-07-17T23:32:27.092Z,15.25
2023-07-17T23:35:15.919Z,15.19
2023-07-17T23:38:03.159Z,15.13
2023-07-17T23:40:49.614Z,15.13
2023-07-17T23:43:37.560Z,15.19
2023-07-17T23:46:25.125Z,15.13
2023-07-17T23:49:11.687Z,15.13
2023-07-17T23:51:59.257Z,15.06
2023-07-17T23:54:47.687Z,15.13
2023-07-17T23:57:34.386Z,15.06
